sensor_id;sensor_type;location;lat;lon;timestamp;P1;durP1;ratioP1;P2;durP2;ratioP2
12314;SDS011;23886;46.614;14.276;2022-12-07T00:01:54;4.50;;;4.10;;
12314;SDS011;23886;46.614;14.276;2022-12-07T00:04:21;4.67;;;4.27;;
12314;SDS011;23886;46.614;14.276;2022-12-07T00:06:51;4.50;;;4.10;;
12314;SDS011;23886;46.614;14.276;2022-12-07T00:09:18;4.87;;;4.23;;
12314;SDS011;23886;46.614;14.276;2022-12-07T00:11:48;5.83;;;4.00;;
12314;SDS011;23886;46.614;14.276;2022-12-07T00:14:18;5.10;;;4.60;;
12314;SDS011;23886;46.614;14.276;2022-12-07T00:16:45;6.13;;;4.20;;
12314;SDS011;23886;46.614;14.276;2022-12-07T00:19:14;5.00;;;3.83;;
12314;SDS011;23886;46.614;14.276;2022-12-07T00:21:42;4.67;;;4.27;;
12314;SDS011;23886;46.614;14.276;2022-12-07T00:24:10;4.90;;;4.20;;
12314;SDS011;23886;46.614;14.276;2022-12-07T00:26:39;4.87;;;4.37;;
12314;SDS011;23886;46.614;14.276;2022-12-07T00:29:16;5.53;;;4.70;;
12314;SDS011;23886;46.614;14.276;2022-12-07T00:31:45;5.10;;;4.60;;
12314;SDS011;23886;46.614;14.276;2022-12-07T00:34:13;5.77;;;4.33;;
12314;SDS011;23886;46.614;14.276;2022-12-07T00:36:41;4.77;;;4.27;;
12314;SDS011;23886;46.614;14.276;2022-12-07T00:39:08;6.70;;;4.80;;
12314;SDS011;23886;46.614;14.276;2022-12-07T00:41:37;5.33;;;4.77;;
12314;SDS011;23886;46.614;14.276;2022-12-07T00:44:04;5.10;;;4.60;;
12314;SDS011;23886;46.614;14.276;2022-12-07T00:46:31;5.77;;;4.93;;
12314;SDS011;23886;46.614;14.276;2022-12-07T00:48:58;5.40;;;4.70;;
12314;SDS011;23886;46.614;14.276;2022-12-07T00:51:25;5.37;;;4.60;;
12314;SDS011;23886;46.614;14.276;2022-12-07T00:53:52;5.27;;;4.77;;
12314;SDS011;23886;46.614;14.276;2022-12-07T00:56:22;5.13;;;4.63;;
12314;SDS011;23886;46.614;14.276;2022-12-07T00:58:51;5.90;;;4.63;;
12314;SDS011;23886;46.614;14.276;2022-12-07T01:01:19;5.97;;;5.00;;
12314;SDS011;23886;46.614;14.276;2022-12-07T01:03:46;6.73;;;4.83;;
12314;SDS011;23886;46.614;14.276;2022-12-07T01:06:14;5.57;;;4.87;;
12314;SDS011;23886;46.614;14.276;2022-12-07T01:08:42;5.33;;;4.80;;
12314;SDS011;23886;46.614;14.276;2022-12-07T01:11:09;5.27;;;4.77;;
12314;SDS011;23886;46.614;14.276;2022-12-07T01:13:40;4.73;;;4.20;;
12314;SDS011;23886;46.614;14.276;2022-12-07T01:16:10;4.80;;;4.30;;
12314;SDS011;23886;46.614;14.276;2022-12-07T01:18:38;6.10;;;4.30;;
12314;SDS011;23886;46.614;14.276;2022-12-07T01:21:06;5.40;;;4.23;;
12314;SDS011;23886;46.614;14.276;2022-12-07T01:23:34;4.50;;;4.10;;
12314;SDS011;23886;46.614;14.276;2022-12-07T01:26:02;4.87;;;4.40;;
12314;SDS011;23886;46.614;14.276;2022-12-07T01:28:31;5.33;;;4.30;;
12314;SDS011;23886;46.614;14.276;2022-12-07T01:31:00;4.97;;;4.43;;
12314;SDS011;23886;46.614;14.276;2022-12-07T01:33:30;5.83;;;4.33;;
12314;SDS011;23886;46.614;14.276;2022-12-07T01:36:00;6.10;;;4.70;;
12314;SDS011;23886;46.614;14.276;2022-12-07T01:38:28;5.30;;;4.47;;
12314;SDS011;23886;46.614;14.276;2022-12-07T01:40:55;4.33;;;3.80;;
12314;SDS011;23886;46.614;14.276;2022-12-07T01:43:23;5.17;;;4.67;;
12314;SDS011;23886;46.614;14.276;2022-12-07T01:45:52;8.53;;;4.60;;
12314;SDS011;23886;46.614;14.276;2022-12-07T01:48:21;5.30;;;4.63;;
12314;SDS011;23886;46.614;14.276;2022-12-07T01:50:52;4.80;;;4.30;;
12314;SDS011;23886;46.614;14.276;2022-12-07T01:53:21;4.03;;;3.63;;
12314;SDS011;23886;46.614;14.276;2022-12-07T01:55:51;4.20;;;3.80;;
12314;SDS011;23886;46.614;14.276;2022-12-07T01:58:19;5.67;;;5.10;;
12314;SDS011;23886;46.614;14.276;2022-12-07T02:00:47;5.47;;;4.73;;
12314;SDS011;23886;46.614;14.276;2022-12-07T02:03:16;5.73;;;4.90;;
12314;SDS011;23886;46.614;14.276;2022-12-07T02:05:47;7.07;;;4.53;;
12314;SDS011;23886;46.614;14.276;2022-12-07T02:08:15;4.33;;;3.93;;
12314;SDS011;23886;46.614;14.276;2022-12-07T02:10:43;4.50;;;4.10;;
12314;SDS011;23886;46.614;14.276;2022-12-07T02:13:11;5.03;;;4.17;;
12314;SDS011;23886;46.614;14.276;2022-12-07T02:18:32;4.33;;;3.73;;
12314;SDS011;23886;46.614;14.276;2022-12-07T02:21:15;3.80;;;3.47;;
12314;SDS011;23886;46.614;14.276;2022-12-07T02:23:52;4.20;;;3.80;;
12314;SDS011;23886;46.614;14.276;2022-12-07T02:29:44;3.70;;;3.40;;
12314;SDS011;23886;46.614;14.276;2022-12-07T02:32:16;4.13;;;3.80;;
12314;SDS011;23886;46.614;14.276;2022-12-07T02:34:50;3.73;;;3.40;;
12314;SDS011;23886;46.614;14.276;2022-12-07T02:37:25;4.53;;;3.70;;
12314;SDS011;23886;46.614;14.276;2022-12-07T02:39:59;3.90;;;3.60;;
12314;SDS011;23886;46.614;14.276;2022-12-07T02:42:33;3.93;;;3.53;;
12314;SDS011;23886;46.614;14.276;2022-12-07T02:45:08;4.97;;;3.50;;
12314;SDS011;23886;46.614;14.276;2022-12-07T02:47:36;3.60;;;3.30;;
12314;SDS011;23886;46.614;14.276;2022-12-07T02:50:06;3.90;;;3.60;;
12314;SDS011;23886;46.614;14.276;2022-12-07T02:52:33;3.83;;;3.53;;
12314;SDS011;23886;46.614;14.276;2022-12-07T02:55:00;3.43;;;3.13;;
12314;SDS011;23886;46.614;14.276;2022-12-07T02:57:32;3.10;;;2.90;;
12314;SDS011;23886;46.614;14.276;2022-12-07T03:00:09;2.70;;;2.50;;
12314;SDS011;23886;46.614;14.276;2022-12-07T03:02:43;3.23;;;2.93;;
12314;SDS011;23886;46.614;14.276;2022-12-07T03:05:24;3.37;;;3.07;;
12314;SDS011;23886;46.614;14.276;2022-12-07T03:08:04;2.80;;;2.60;;
12314;SDS011;23886;46.614;14.276;2022-12-07T03:10:39;2.80;;;2.60;;
12314;SDS011;23886;46.614;14.276;2022-12-07T03:13:14;2.60;;;2.40;;
12314;SDS011;23886;46.614;14.276;2022-12-07T03:15:49;2.70;;;2.50;;
12314;SDS011;23886;46.614;14.276;2022-12-07T03:18:23;2.60;;;2.40;;
12314;SDS011;23886;46.614;14.276;2022-12-07T03:20:55;2.60;;;2.40;;
12314;SDS011;23886;46.614;14.276;2022-12-07T03:23:25;2.60;;;2.40;;
12314;SDS011;23886;46.614;14.276;2022-12-07T03:25:53;2.93;;;2.73;;
12314;SDS011;23886;46.614;14.276;2022-12-07T03:28:24;2.50;;;2.30;;
12314;SDS011;23886;46.614;14.276;2022-12-07T03:30:57;3.50;;;2.40;;
12314;SDS011;23886;46.614;14.276;2022-12-07T03:33:30;2.50;;;2.30;;
12314;SDS011;23886;46.614;14.276;2022-12-07T03:36:01;2.57;;;2.37;;
12314;SDS011;23886;46.614;14.276;2022-12-07T03:38:33;2.73;;;2.53;;
12314;SDS011;23886;46.614;14.276;2022-12-07T03:41:06;2.93;;;2.73;;
12314;SDS011;23886;46.614;14.276;2022-12-07T03:43:36;3.13;;;2.87;;
12314;SDS011;23886;46.614;14.276;2022-12-07T03:46:07;2.93;;;2.73;;
12314;SDS011;23886;46.614;14.276;2022-12-07T03:48:46;2.93;;;2.73;;
12314;SDS011;23886;46.614;14.276;2022-12-07T03:51:20;3.33;;;3.00;;
12314;SDS011;23886;46.614;14.276;2022-12-07T03:53:52;3.23;;;2.90;;
12314;SDS011;23886;46.614;14.276;2022-12-07T03:56:25;2.97;;;2.70;;
12314;SDS011;23886;46.614;14.276;2022-12-07T03:58:54;3.33;;;3.03;;
12314;SDS011;23886;46.614;14.276;2022-12-07T04:01:24;2.60;;;2.40;;
12314;SDS011;23886;46.614;14.276;2022-12-07T04:03:51;2.77;;;2.20;;
12314;SDS011;23886;46.614;14.276;2022-12-07T04:06:18;3.13;;;2.83;;
12314;SDS011;23886;46.614;14.276;2022-12-07T04:08:45;2.70;;;2.50;;
12314;SDS011;23886;46.614;14.276;2022-12-07T04:11:12;2.70;;;2.50;;
12314;SDS011;23886;46.614;14.276;2022-12-07T04:13:39;2.50;;;2.30;;
12314;SDS011;23886;46.614;14.276;2022-12-07T04:16:25;3.40;;;2.40;;
12314;SDS011;23886;46.614;14.276;2022-12-07T04:18:52;3.43;;;2.40;;
12314;SDS011;23886;46.614;14.276;2022-12-07T04:21:19;2.90;;;2.70;;
12314;SDS011;23886;46.614;14.276;2022-12-07T04:23:46;2.93;;;2.67;;
12314;SDS011;23886;46.614;14.276;2022-12-07T04:26:13;2.90;;;2.70;;
12314;SDS011;23886;46.614;14.276;2022-12-07T04:28:40;2.90;;;2.70;;
12314;SDS011;23886;46.614;14.276;2022-12-07T04:31:07;2.90;;;2.70;;
12314;SDS011;23886;46.614;14.276;2022-12-07T04:33:36;2.60;;;2.40;;
12314;SDS011;23886;46.614;14.276;2022-12-07T04:36:03;2.70;;;2.50;;
12314;SDS011;23886;46.614;14.276;2022-12-07T04:38:31;2.80;;;2.60;;
12314;SDS011;23886;46.614;14.276;2022-12-07T04:40:58;2.97;;;2.77;;
12314;SDS011;23886;46.614;14.276;2022-12-07T04:43:30;3.63;;;2.80;;
12314;SDS011;23886;46.614;14.276;2022-12-07T04:45:57;3.50;;;3.20;;
12314;SDS011;23886;46.614;14.276;2022-12-07T04:48:24;3.17;;;2.63;;
12314;SDS011;23886;46.614;14.276;2022-12-07T04:50:52;3.13;;;2.83;;
12314;SDS011;23886;46.614;14.276;2022-12-07T04:53:19;2.83;;;2.57;;
12314;SDS011;23886;46.614;14.276;2022-12-07T04:55:46;2.53;;;2.33;;
12314;SDS011;23886;46.614;14.276;2022-12-07T04:58:13;2.70;;;2.50;;
12314;SDS011;23886;46.614;14.276;2022-12-07T05:00:40;2.80;;;2.60;;
12314;SDS011;23886;46.614;14.276;2022-12-07T05:03:07;2.80;;;2.60;;
12314;SDS011;23886;46.614;14.276;2022-12-07T05:05:34;2.77;;;2.57;;
12314;SDS011;23886;46.614;14.276;2022-12-07T05:08:03;3.00;;;2.80;;
12314;SDS011;23886;46.614;14.276;2022-12-07T05:10:30;2.90;;;2.70;;
12314;SDS011;23886;46.614;14.276;2022-12-07T05:12:57;2.77;;;2.57;;
12314;SDS011;23886;46.614;14.276;2022-12-07T05:15:24;2.60;;;2.40;;
12314;SDS011;23886;46.614;14.276;2022-12-07T05:17:51;2.60;;;2.40;;
12314;SDS011;23886;46.614;14.276;2022-12-07T05:20:18;2.73;;;2.53;;
12314;SDS011;23886;46.614;14.276;2022-12-07T05:22:45;2.60;;;2.40;;
12314;SDS011;23886;46.614;14.276;2022-12-07T05:25:13;2.43;;;2.23;;
12314;SDS011;23886;46.614;14.276;2022-12-07T05:27:40;2.47;;;2.27;;
12314;SDS011;23886;46.614;14.276;2022-12-07T05:30:08;2.50;;;2.30;;
12314;SDS011;23886;46.614;14.276;2022-12-07T05:32:35;2.50;;;2.30;;
12314;SDS011;23886;46.614;14.276;2022-12-07T05:35:02;2.97;;;2.70;;
12314;SDS011;23886;46.614;14.276;2022-12-07T05:37:29;2.53;;;2.33;;
12314;SDS011;23886;46.614;14.276;2022-12-07T05:39:56;2.90;;;2.53;;
12314;SDS011;23886;46.614;14.276;2022-12-07T05:42:25;2.20;;;2.00;;
12314;SDS011;23886;46.614;14.276;2022-12-07T05:44:52;2.40;;;2.20;;
12314;SDS011;23886;46.614;14.276;2022-12-07T05:47:19;2.60;;;2.40;;
12314;SDS011;23886;46.614;14.276;2022-12-07T05:49:46;2.67;;;2.47;;
12314;SDS011;23886;46.614;14.276;2022-12-07T05:52:13;2.90;;;2.30;;
12314;SDS011;23886;46.614;14.276;2022-12-07T05:54:40;2.47;;;2.27;;
12314;SDS011;23886;46.614;14.276;2022-12-07T05:57:07;2.43;;;2.23;;
12314;SDS011;23886;46.614;14.276;2022-12-07T05:59:35;2.50;;;2.30;;
12314;SDS011;23886;46.614;14.276;2022-12-07T06:02:02;2.80;;;2.60;;
12314;SDS011;23886;46.614;14.276;2022-12-07T06:04:31;2.40;;;2.20;;
12314;SDS011;23886;46.614;14.276;2022-12-07T06:07:00;3.03;;;2.40;;
12314;SDS011;23886;46.614;14.276;2022-12-07T06:09:27;2.80;;;2.60;;
12314;SDS011;23886;46.614;14.276;2022-12-07T06:11:54;3.20;;;2.50;;
12314;SDS011;23886;46.614;14.276;2022-12-07T06:14:41;3.50;;;2.30;;
12314;SDS011;23886;46.614;14.276;2022-12-07T06:17:08;2.30;;;2.10;;
12314;SDS011;23886;46.614;14.276;2022-12-07T06:19:36;2.50;;;2.30;;
12314;SDS011;23886;46.614;14.276;2022-12-07T06:22:03;2.40;;;2.20;;
12314;SDS011;23886;46.614;14.276;2022-12-07T06:24:30;3.20;;;2.90;;
12314;SDS011;23886;46.614;14.276;2022-12-07T06:26:57;3.73;;;3.43;;
12314;SDS011;23886;46.614;14.276;2022-12-07T06:29:24;3.20;;;2.90;;
12314;SDS011;23886;46.614;14.276;2022-12-07T06:31:53;3.83;;;3.43;;
12314;SDS011;23886;46.614;14.276;2022-12-07T06:34:20;3.57;;;3.27;;
12314;SDS011;23886;46.614;14.276;2022-12-07T06:36:48;3.00;;;2.80;;
12314;SDS011;23886;46.614;14.276;2022-12-07T06:39:18;3.50;;;3.20;;
12314;SDS011;23886;46.614;14.276;2022-12-07T06:41:46;2.93;;;2.67;;
12314;SDS011;23886;46.614;14.276;2022-12-07T06:44:13;2.97;;;2.70;;
12314;SDS011;23886;46.614;14.276;2022-12-07T06:46:40;2.90;;;2.60;;
12314;SDS011;23886;46.614;14.276;2022-12-07T06:49:09;3.50;;;2.70;;
12314;SDS011;23886;46.614;14.276;2022-12-07T06:51:35;2.97;;;2.67;;
12314;SDS011;23886;46.614;14.276;2022-12-07T06:54:06;2.87;;;2.53;;
12314;SDS011;23886;46.614;14.276;2022-12-07T06:56:33;3.33;;;2.87;;
12314;SDS011;23886;46.614;14.276;2022-12-07T06:59:00;2.80;;;2.60;;
12314;SDS011;23886;46.614;14.276;2022-12-07T07:01:27;3.00;;;2.80;;
12314;SDS011;23886;46.614;14.276;2022-12-07T07:03:54;2.83;;;2.63;;
12314;SDS011;23886;46.614;14.276;2022-12-07T07:06:23;3.07;;;2.83;;
12314;SDS011;23886;46.614;14.276;2022-12-07T07:08:50;5.57;;;5.07;;
12314;SDS011;23886;46.614;14.276;2022-12-07T07:11:17;4.20;;;3.70;;
12314;SDS011;23886;46.614;14.276;2022-12-07T07:13:44;4.97;;;4.00;;
12314;SDS011;23886;46.614;14.276;2022-12-07T07:16:11;4.93;;;3.90;;
12314;SDS011;23886;46.614;14.276;2022-12-07T07:18:39;3.17;;;2.87;;
12314;SDS011;23886;46.614;14.276;2022-12-07T07:21:06;3.50;;;2.90;;
12314;SDS011;23886;46.614;14.276;2022-12-07T07:23:35;3.70;;;3.17;;
12314;SDS011;23886;46.614;14.276;2022-12-07T07:26:02;3.30;;;3.00;;
12314;SDS011;23886;46.614;14.276;2022-12-07T07:28:29;2.60;;;2.40;;
12314;SDS011;23886;46.614;14.276;2022-12-07T07:30:56;2.30;;;2.10;;
12314;SDS011;23886;46.614;14.276;2022-12-07T07:33:23;2.50;;;2.27;;
12314;SDS011;23886;46.614;14.276;2022-12-07T07:35:50;2.50;;;2.30;;
12314;SDS011;23886;46.614;14.276;2022-12-07T07:38:17;2.60;;;2.40;;
12314;SDS011;23886;46.614;14.276;2022-12-07T07:40:46;3.70;;;2.40;;
12314;SDS011;23886;46.614;14.276;2022-12-07T07:43:12;2.87;;;2.67;;
12314;SDS011;23886;46.614;14.276;2022-12-07T07:45:39;4.13;;;3.37;;
12314;SDS011;23886;46.614;14.276;2022-12-07T07:48:06;5.40;;;3.77;;
12314;SDS011;23886;46.614;14.276;2022-12-07T07:50:33;3.50;;;3.20;;
12314;SDS011;23886;46.614;14.276;2022-12-07T07:53:00;3.80;;;3.50;;
12314;SDS011;23886;46.614;14.276;2022-12-07T07:55:27;4.13;;;3.70;;
12314;SDS011;23886;46.614;14.276;2022-12-07T07:57:56;3.03;;;2.73;;
12314;SDS011;23886;46.614;14.276;2022-12-07T08:00:23;2.80;;;2.60;;
12314;SDS011;23886;46.614;14.276;2022-12-07T08:02:50;4.37;;;2.60;;
12314;SDS011;23886;46.614;14.276;2022-12-07T08:05:17;3.00;;;2.80;;
12314;SDS011;23886;46.614;14.276;2022-12-07T08:07:44;2.70;;;2.50;;
12314;SDS011;23886;46.614;14.276;2022-12-07T08:10:12;2.60;;;2.40;;
12314;SDS011;23886;46.614;14.276;2022-12-07T08:12:40;3.20;;;2.13;;
12314;SDS011;23886;46.614;14.276;2022-12-07T08:15:23;2.60;;;2.40;;
12314;SDS011;23886;46.614;14.276;2022-12-07T08:17:51;3.30;;;2.67;;
12314;SDS011;23886;46.614;14.276;2022-12-07T08:20:18;2.57;;;2.37;;
12314;SDS011;23886;46.614;14.276;2022-12-07T08:22:45;2.70;;;2.50;;
12314;SDS011;23886;46.614;14.276;2022-12-07T08:25:12;3.73;;;2.70;;
12314;SDS011;23886;46.614;14.276;2022-12-07T08:27:39;2.40;;;2.20;;
12314;SDS011;23886;46.614;14.276;2022-12-07T08:30:06;2.97;;;2.77;;
12314;SDS011;23886;46.614;14.276;2022-12-07T08:32:35;2.70;;;2.50;;
12314;SDS011;23886;46.614;14.276;2022-12-07T08:35:02;2.50;;;2.30;;
12314;SDS011;23886;46.614;14.276;2022-12-07T08:37:30;2.47;;;2.10;;
12314;SDS011;23886;46.614;14.276;2022-12-07T08:39:58;2.07;;;1.90;;
12314;SDS011;23886;46.614;14.276;2022-12-07T08:42:25;1.70;;;1.60;;
12314;SDS011;23886;46.614;14.276;2022-12-07T08:44:55;2.03;;;1.70;;
12314;SDS011;23886;46.614;14.276;2022-12-07T08:47:22;3.00;;;2.70;;
12314;SDS011;23886;46.614;14.276;2022-12-07T08:49:52;2.00;;;1.90;;
12314;SDS011;23886;46.614;14.276;2022-12-07T08:52:20;3.13;;;2.10;;
12314;SDS011;23886;46.614;14.276;2022-12-07T08:54:47;2.07;;;1.80;;
12314;SDS011;23886;46.614;14.276;2022-12-07T08:57:15;2.07;;;1.90;;
12314;SDS011;23886;46.614;14.276;2022-12-07T08:59:42;2.20;;;2.07;;
12314;SDS011;23886;46.614;14.276;2022-12-07T09:02:09;2.40;;;2.20;;
12314;SDS011;23886;46.614;14.276;2022-12-07T09:04:36;2.53;;;2.10;;
12314;SDS011;23886;46.614;14.276;2022-12-07T09:07:04;2.13;;;1.90;;
12314;SDS011;23886;46.614;14.276;2022-12-07T09:09:31;2.90;;;2.63;;
12314;SDS011;23886;46.614;14.276;2022-12-07T09:11:58;2.00;;;1.90;;
12314;SDS011;23886;46.614;14.276;2022-12-07T09:14:25;2.30;;;2.10;;
12314;SDS011;23886;46.614;14.276;2022-12-07T09:16:52;2.50;;;2.30;;
12314;SDS011;23886;46.614;14.276;2022-12-07T09:19:19;2.77;;;2.40;;
12314;SDS011;23886;46.614;14.276;2022-12-07T09:21:46;2.50;;;2.30;;
12314;SDS011;23886;46.614;14.276;2022-12-07T09:24:15;2.67;;;2.47;;
12314;SDS011;23886;46.614;14.276;2022-12-07T09:26:41;3.20;;;2.90;;
12314;SDS011;23886;46.614;14.276;2022-12-07T09:29:09;3.63;;;3.33;;
12314;SDS011;23886;46.614;14.276;2022-12-07T09:31:36;2.80;;;2.50;;
12314;SDS011;23886;46.614;14.276;2022-12-07T09:34:04;3.30;;;2.60;;
12314;SDS011;23886;46.614;14.276;2022-12-07T09:36:32;2.67;;;2.47;;
12314;SDS011;23886;46.614;14.276;2022-12-07T09:38:59;2.50;;;2.30;;
12314;SDS011;23886;46.614;14.276;2022-12-07T09:41:27;2.40;;;2.20;;
12314;SDS011;23886;46.614;14.276;2022-12-07T09:43:58;2.80;;;2.40;;
12314;SDS011;23886;46.614;14.276;2022-12-07T09:46:31;2.70;;;2.50;;
12314;SDS011;23886;46.614;14.276;2022-12-07T09:49:02;2.57;;;2.37;;
12314;SDS011;23886;46.614;14.276;2022-12-07T09:51:30;2.30;;;2.10;;
12314;SDS011;23886;46.614;14.276;2022-12-07T09:53:58;2.50;;;2.30;;
12314;SDS011;23886;46.614;14.276;2022-12-07T09:56:29;2.50;;;2.30;;
12314;SDS011;23886;46.614;14.276;2022-12-07T09:58:59;2.13;;;2.00;;
12314;SDS011;23886;46.614;14.276;2022-12-07T10:01:28;2.60;;;2.40;;
12314;SDS011;23886;46.614;14.276;2022-12-07T10:03:59;2.40;;;2.20;;
12314;SDS011;23886;46.614;14.276;2022-12-07T10:06:32;2.40;;;2.20;;
12314;SDS011;23886;46.614;14.276;2022-12-07T10:08:58;2.57;;;2.37;;
12314;SDS011;23886;46.614;14.276;2022-12-07T10:11:25;2.53;;;2.20;;
12314;SDS011;23886;46.614;14.276;2022-12-07T10:13:54;3.10;;;2.10;;
12314;SDS011;23886;46.614;14.276;2022-12-07T10:16:30;2.27;;;2.07;;
12314;SDS011;23886;46.614;14.276;2022-12-07T10:21:59;2.40;;;2.20;;
12314;SDS011;23886;46.614;14.276;2022-12-07T10:24:31;2.67;;;2.47;;
12314;SDS011;23886;46.614;14.276;2022-12-07T10:26:58;3.50;;;2.30;;
12314;SDS011;23886;46.614;14.276;2022-12-07T10:29:29;2.63;;;2.43;;
12314;SDS011;23886;46.614;14.276;2022-12-07T10:31:59;2.60;;;2.40;;
12314;SDS011;23886;46.614;14.276;2022-12-07T10:34:28;2.40;;;2.20;;
12314;SDS011;23886;46.614;14.276;2022-12-07T10:37:15;2.90;;;2.60;;
12314;SDS011;23886;46.614;14.276;2022-12-07T10:39:44;3.27;;;2.50;;
12314;SDS011;23886;46.614;14.276;2022-12-07T10:42:16;2.80;;;2.60;;
12314;SDS011;23886;46.614;14.276;2022-12-07T10:44:46;2.50;;;2.30;;
12314;SDS011;23886;46.614;14.276;2022-12-07T10:47:17;2.50;;;2.30;;
12314;SDS011;23886;46.614;14.276;2022-12-07T10:53:09;2.83;;;2.53;;
12314;SDS011;23886;46.614;14.276;2022-12-07T10:56:25;2.73;;;2.53;;
12314;SDS011;23886;46.614;14.276;2022-12-07T10:59:14;3.00;;;2.70;;
12314;SDS011;23886;46.614;14.276;2022-12-07T11:01:57;3.90;;;3.00;;
12314;SDS011;23886;46.614;14.276;2022-12-07T11:04:38;2.70;;;2.50;;
12314;SDS011;23886;46.614;14.276;2022-12-07T11:07:22;4.00;;;3.10;;
12314;SDS011;23886;46.614;14.276;2022-12-07T11:10:02;2.50;;;2.30;;
12314;SDS011;23886;46.614;14.276;2022-12-07T11:12:39;2.60;;;2.40;;
12314;SDS011;23886;46.614;14.276;2022-12-07T11:15:21;2.70;;;2.50;;
12314;SDS011;23886;46.614;14.276;2022-12-07T11:17:53;3.00;;;2.40;;
12314;SDS011;23886;46.614;14.276;2022-12-07T11:20:34;2.40;;;2.20;;
12314;SDS011;23886;46.614;14.276;2022-12-07T11:23:12;2.43;;;2.23;;
12314;SDS011;23886;46.614;14.276;2022-12-07T11:25:47;2.50;;;2.30;;
12314;SDS011;23886;46.614;14.276;2022-12-07T11:28:22;2.77;;;2.47;;
12314;SDS011;23886;46.614;14.276;2022-12-07T11:31:02;2.30;;;2.10;;
12314;SDS011;23886;46.614;14.276;2022-12-07T11:33:40;2.53;;;2.33;;
12314;SDS011;23886;46.614;14.276;2022-12-07T11:36:15;2.17;;;2.03;;
12314;SDS011;23886;46.614;14.276;2022-12-07T11:38:57;3.37;;;2.30;;
12314;SDS011;23886;46.614;14.276;2022-12-07T11:41:28;2.60;;;2.30;;
12314;SDS011;23886;46.614;14.276;2022-12-07T11:43:58;2.50;;;2.30;;
12314;SDS011;23886;46.614;14.276;2022-12-07T11:46:35;2.67;;;2.30;;
12314;SDS011;23886;46.614;14.276;2022-12-07T11:49:13;2.23;;;2.03;;
12314;SDS011;23886;46.614;14.276;2022-12-07T11:51:45;2.40;;;2.20;;
12314;SDS011;23886;46.614;14.276;2022-12-07T11:54:17;2.30;;;2.10;;
12314;SDS011;23886;46.614;14.276;2022-12-07T11:56:48;2.40;;;2.20;;
12314;SDS011;23886;46.614;14.276;2022-12-07T11:59:17;2.47;;;2.10;;
12314;SDS011;23886;46.614;14.276;2022-12-07T12:01:52;2.30;;;2.10;;
12314;SDS011;23886;46.614;14.276;2022-12-07T12:07:46;3.60;;;2.93;;
12314;SDS011;23886;46.614;14.276;2022-12-07T12:10:20;3.57;;;3.27;;
12314;SDS011;23886;46.614;14.276;2022-12-07T12:12:57;3.30;;;3.00;;
12314;SDS011;23886;46.614;14.276;2022-12-07T12:15:41;4.67;;;4.17;;
12314;SDS011;23886;46.614;14.276;2022-12-07T12:21:38;2.17;;;2.00;;
12314;SDS011;23886;46.614;14.276;2022-12-07T12:24:09;2.80;;;2.27;;
12314;SDS011;23886;46.614;14.276;2022-12-07T12:26:41;5.10;;;2.20;;
12314;SDS011;23886;46.614;14.276;2022-12-07T12:29:20;2.37;;;2.17;;
12314;SDS011;23886;46.614;14.276;2022-12-07T12:32:04;2.00;;;1.90;;
12314;SDS011;23886;46.614;14.276;2022-12-07T12:35:00;2.50;;;2.30;;
12314;SDS011;23886;46.614;14.276;2022-12-07T12:37:46;2.70;;;2.10;;
12314;SDS011;23886;46.614;14.276;2022-12-07T12:55:16;2.60;;;2.40;;
12314;SDS011;23886;46.614;14.276;2022-12-07T12:57:48;2.27;;;2.10;;
12314;SDS011;23886;46.614;14.276;2022-12-07T13:03:53;2.57;;;2.37;;
12314;SDS011;23886;46.614;14.276;2022-12-07T13:06:31;2.60;;;2.30;;
12314;SDS011;23886;46.614;14.276;2022-12-07T13:09:03;2.37;;;2.17;;
12314;SDS011;23886;46.614;14.276;2022-12-07T13:11:31;2.30;;;2.07;;
12314;SDS011;23886;46.614;14.276;2022-12-07T13:17:08;4.03;;;2.37;;
12314;SDS011;23886;46.614;14.276;2022-12-07T13:22:34;2.97;;;2.60;;
12314;SDS011;23886;46.614;14.276;2022-12-07T13:25:10;2.43;;;2.23;;
12314;SDS011;23886;46.614;14.276;2022-12-07T13:27:46;2.60;;;2.30;;
12314;SDS011;23886;46.614;14.276;2022-12-07T13:30:20;2.40;;;2.17;;
12314;SDS011;23886;46.614;14.276;2022-12-07T13:32:52;3.13;;;2.27;;
12314;SDS011;23886;46.614;14.276;2022-12-07T13:35:30;2.37;;;2.17;;
12314;SDS011;23886;46.614;14.276;2022-12-07T13:37:59;2.70;;;2.43;;
12314;SDS011;23886;46.614;14.276;2022-12-07T13:40:30;3.53;;;2.83;;
12314;SDS011;23886;46.614;14.276;2022-12-07T13:42:57;3.00;;;2.73;;
12314;SDS011;23886;46.614;14.276;2022-12-07T13:45:26;3.37;;;2.87;;
12314;SDS011;23886;46.614;14.276;2022-12-07T13:48:09;2.77;;;2.40;;
12314;SDS011;23886;46.614;14.276;2022-12-07T13:50:41;2.60;;;2.40;;
12314;SDS011;23886;46.614;14.276;2022-12-07T13:53:11;3.10;;;2.80;;
12314;SDS011;23886;46.614;14.276;2022-12-07T13:55:44;3.50;;;3.20;;
12314;SDS011;23886;46.614;14.276;2022-12-07T13:58:12;4.97;;;3.90;;
12314;SDS011;23886;46.614;14.276;2022-12-07T14:00:39;3.20;;;2.90;;
12314;SDS011;23886;46.614;14.276;2022-12-07T14:03:23;2.57;;;2.37;;
12314;SDS011;23886;46.614;14.276;2022-12-07T14:09:05;2.50;;;2.30;;
12314;SDS011;23886;46.614;14.276;2022-12-07T14:11:43;2.50;;;2.30;;
12314;SDS011;23886;46.614;14.276;2022-12-07T14:14:10;2.50;;;2.30;;
12314;SDS011;23886;46.614;14.276;2022-12-07T14:16:42;2.87;;;2.60;;
12314;SDS011;23886;46.614;14.276;2022-12-07T14:24:59;2.40;;;2.20;;
12314;SDS011;23886;46.614;14.276;2022-12-07T14:27:30;3.40;;;2.50;;
12314;SDS011;23886;46.614;14.276;2022-12-07T14:29:59;2.93;;;2.60;;
12314;SDS011;23886;46.614;14.276;2022-12-07T14:32:28;2.70;;;2.50;;
12314;SDS011;23886;46.614;14.276;2022-12-07T14:35:01;2.40;;;2.20;;
12314;SDS011;23886;46.614;14.276;2022-12-07T14:37:35;2.70;;;2.50;;
12314;SDS011;23886;46.614;14.276;2022-12-07T14:40:03;2.60;;;2.40;;
12314;SDS011;23886;46.614;14.276;2022-12-07T14:42:31;2.80;;;2.60;;
12314;SDS011;23886;46.614;14.276;2022-12-07T14:45:00;2.90;;;2.60;;
12314;SDS011;23886;46.614;14.276;2022-12-07T14:47:27;3.37;;;3.07;;
12314;SDS011;23886;46.614;14.276;2022-12-07T14:49:54;3.53;;;2.73;;
12314;SDS011;23886;46.614;14.276;2022-12-07T14:52:23;2.83;;;2.53;;
12314;SDS011;23886;46.614;14.276;2022-12-07T14:54:54;2.60;;;2.40;;
12314;SDS011;23886;46.614;14.276;2022-12-07T14:57:21;2.30;;;2.10;;
12314;SDS011;23886;46.614;14.276;2022-12-07T14:59:48;2.50;;;2.30;;
12314;SDS011;23886;46.614;14.276;2022-12-07T15:02:15;3.10;;;2.80;;
12314;SDS011;23886;46.614;14.276;2022-12-07T15:04:42;2.63;;;2.40;;
12314;SDS011;23886;46.614;14.276;2022-12-07T15:07:10;3.47;;;2.80;;
12314;SDS011;23886;46.614;14.276;2022-12-07T15:09:43;2.87;;;2.53;;
12314;SDS011;23886;46.614;14.276;2022-12-07T15:12:10;2.67;;;2.47;;
12314;SDS011;23886;46.614;14.276;2022-12-07T15:14:37;4.70;;;2.97;;
12314;SDS011;23886;46.614;14.276;2022-12-07T15:17:04;7.40;;;6.23;;
12314;SDS011;23886;46.614;14.276;2022-12-07T15:19:31;19.03;;;14.07;;
12314;SDS011;23886;46.614;14.276;2022-12-07T15:21:58;4.73;;;4.23;;
12314;SDS011;23886;46.614;14.276;2022-12-07T15:24:25;4.40;;;4.00;;
12314;SDS011;23886;46.614;14.276;2022-12-07T15:26:54;4.27;;;3.83;;
12314;SDS011;23886;46.614;14.276;2022-12-07T15:29:21;4.57;;;3.47;;
12314;SDS011;23886;46.614;14.276;2022-12-07T15:31:48;6.43;;;5.83;;
12314;SDS011;23886;46.614;14.276;2022-12-07T15:34:16;4.50;;;4.10;;
12314;SDS011;23886;46.614;14.276;2022-12-07T15:36:43;3.63;;;3.33;;
12314;SDS011;23886;46.614;14.276;2022-12-07T15:39:10;3.10;;;2.87;;
12314;SDS011;23886;46.614;14.276;2022-12-07T15:41:38;3.60;;;3.30;;
12314;SDS011;23886;46.614;14.276;2022-12-07T15:44:08;4.80;;;3.40;;